ENT3A EPWA-EPPO
Flight info
| Callsign | ENT3A |
|---|---|
| Flight time | N/A |
| Altitude | 24000 |
| Route | DCT LOLSI DCT DIBLO DCT INDIG L980 MASIV DCT |
| Aircraft | B738/M-SDE2E3FGHIRWXY/LB1 |
Departure
| Time | N/A |
|---|---|
| Airport | Warsaw Chopin Airport (EPWA) |
Arrival
| Time | 2026-05-03 20:42 |
|---|---|
| Airport | Poznań-Ławica Airport (EPPO) |
| Time | Latitude | Longitude | Altitude | Speed | Heading |
|---|---|---|---|---|---|
| 2026-05-03 20:15 | 52.08151 | 18.83844 | 22875 ft | 336 kts | 261° |
| 2026-05-03 20:15 | 52.07784 | 18.80092 | 22452 ft | 334 kts | 261° |
| 2026-05-03 20:15 | 52.07420 | 18.76374 | 22082 ft | 331 kts | 261° |
| 2026-05-03 20:15 | 52.07064 | 18.72749 | 21718 ft | 328 kts | 261° |
| 2026-05-03 20:16 | 52.06704 | 18.69104 | 21345 ft | 325 kts | 261° |
| 2026-05-03 20:16 | 52.06346 | 18.65487 | 20975 ft | 323 kts | 261° |
| 2026-05-03 20:16 | 52.05992 | 18.61914 | 20717 ft | 318 kts | 260° |
| 2026-05-03 20:16 | 52.05640 | 18.58383 | 20469 ft | 315 kts | 260° |
| 2026-05-03 20:17 | 52.05290 | 18.54876 | 20222 ft | 313 kts | 260° |
| 2026-05-03 20:17 | 52.04942 | 18.51403 | 19969 ft | 310 kts | 260° |
| 2026-05-03 20:17 | 52.04595 | 18.47951 | 19727 ft | 310 kts | 260° |
| 2026-05-03 20:17 | 52.04245 | 18.44485 | 19488 ft | 312 kts | 260° |
| 2026-05-03 20:18 | 52.03893 | 18.41004 | 19247 ft | 312 kts | 260° |
| 2026-05-03 20:18 | 52.03542 | 18.37544 | 18999 ft | 310 kts | 259° |
| 2026-05-03 20:18 | 52.03191 | 18.34097 | 18764 ft | 308 kts | 259° |
| 2026-05-03 20:18 | 52.02842 | 18.30673 | 18536 ft | 306 kts | 259° |
| 2026-05-03 20:19 | 52.02495 | 18.27278 | 18298 ft | 304 kts | 259° |
| 2026-05-03 20:19 | 52.02147 | 18.23888 | 18034 ft | 303 kts | 259° |
| 2026-05-03 20:19 | 52.01800 | 18.20525 | 17762 ft | 301 kts | 259° |
| 2026-05-03 20:19 | 52.01455 | 18.17176 | 17495 ft | 300 kts | 259° |
| 2026-05-03 20:20 | 52.01114 | 18.13883 | 17235 ft | 299 kts | 259° |
| 2026-05-03 20:20 | 52.00770 | 18.10559 | 16979 ft | 298 kts | 259° |
| 2026-05-03 20:20 | 52.00424 | 18.07240 | 16714 ft | 298 kts | 259° |
| 2026-05-03 20:20 | 52.00078 | 18.03930 | 16462 ft | 297 kts | 259° |
| 2026-05-03 20:21 | 51.99806 | 18.00609 | 16199 ft | 298 kts | 265° |
| 2026-05-03 20:21 | 51.99923 | 17.97254 | 15947 ft | 299 kts | 276° |
| 2026-05-03 20:21 | 52.00298 | 17.93931 | 15705 ft | 299 kts | 277° |
| 2026-05-03 20:21 | 52.00683 | 17.90613 | 15449 ft | 299 kts | 277° |
| 2026-05-03 20:22 | 52.01060 | 17.87298 | 15217 ft | 298 kts | 277° |
| 2026-05-03 20:22 | 52.01501 | 17.84009 | 14970 ft | 300 kts | 283° |
| 2026-05-03 20:22 | 52.02149 | 17.80791 | 14724 ft | 300 kts | 285° |
| 2026-05-03 20:22 | 52.02850 | 17.77600 | 14483 ft | 299 kts | 286° |
| 2026-05-03 20:23 | 52.03549 | 17.74416 | 14253 ft | 298 kts | 285° |
| 2026-05-03 20:23 | 52.04234 | 17.71234 | 14019 ft | 298 kts | 285° |
| 2026-05-03 20:23 | 52.04905 | 17.68060 | 13777 ft | 297 kts | 285° |
| 2026-05-03 20:23 | 52.05564 | 17.64905 | 13520 ft | 294 kts | 285° |
| 2026-05-03 20:24 | 52.06214 | 17.61771 | 13246 ft | 292 kts | 285° |
| 2026-05-03 20:24 | 52.06858 | 17.58653 | 12975 ft | 290 kts | 285° |
| 2026-05-03 20:24 | 52.07498 | 17.55543 | 12721 ft | 290 kts | 285° |
| 2026-05-03 20:24 | 52.08132 | 17.52431 | 12508 ft | 289 kts | 285° |
| 2026-05-03 20:25 | 52.08762 | 17.49317 | 12248 ft | 290 kts | 285° |
| 2026-05-03 20:25 | 52.09391 | 17.46194 | 11997 ft | 291 kts | 285° |
| 2026-05-03 20:25 | 52.10013 | 17.43105 | 11750 ft | 291 kts | 285° |
| 2026-05-03 20:25 | 52.10642 | 17.39980 | 11495 ft | 290 kts | 285° |
| 2026-05-03 20:26 | 52.11266 | 17.36874 | 11248 ft | 289 kts | 285° |
| 2026-05-03 20:26 | 52.11888 | 17.33774 | 11006 ft | 288 kts | 285° |
| 2026-05-03 20:26 | 52.12507 | 17.30680 | 10764 ft | 287 kts | 285° |
| 2026-05-03 20:26 | 52.13124 | 17.27595 | 10519 ft | 287 kts | 285° |
| 2026-05-03 20:27 | 52.13740 | 17.24509 | 10273 ft | 286 kts | 285° |
| 2026-05-03 20:27 | 52.14353 | 17.21430 | 10038 ft | 286 kts | 285° |
| 2026-05-03 20:27 | 52.14965 | 17.18354 | 9793 ft | 285 kts | 285° |
| 2026-05-03 20:27 | 52.15576 | 17.15280 | 9499 ft | 284 kts | 285° |
| 2026-05-03 20:28 | 52.16181 | 17.12227 | 9134 ft | 283 kts | 285° |
| 2026-05-03 20:28 | 52.16782 | 17.09195 | 8841 ft | 281 kts | 285° |
| 2026-05-03 20:28 | 52.17373 | 17.06204 | 8541 ft | 280 kts | 285° |
| 2026-05-03 20:28 | 52.17970 | 17.03180 | 8236 ft | 280 kts | 285° |
| 2026-05-03 20:29 | 52.18563 | 17.00168 | 7930 ft | 279 kts | 286° |
| 2026-05-03 20:29 | 52.19156 | 16.97165 | 7636 ft | 278 kts | 286° |
| 2026-05-03 20:29 | 52.19744 | 16.94171 | 7341 ft | 277 kts | 286° |
| 2026-05-03 20:29 | 52.20331 | 16.91181 | 7048 ft | 276 kts | 286° |
| 2026-05-03 20:30 | 52.20914 | 16.88202 | 6755 ft | 275 kts | 286° |
| 2026-05-03 20:30 | 52.21495 | 16.85231 | 6473 ft | 274 kts | 286° |
| 2026-05-03 20:30 | 52.22071 | 16.82286 | 6217 ft | 271 kts | 286° |
| 2026-05-03 20:30 | 52.22640 | 16.79372 | 5963 ft | 268 kts | 286° |
| 2026-05-03 20:31 | 52.23204 | 16.76480 | 5715 ft | 266 kts | 286° |
| 2026-05-03 20:31 | 52.23762 | 16.73608 | 5466 ft | 264 kts | 285° |
| 2026-05-03 20:31 | 52.24313 | 16.70779 | 5288 ft | 260 kts | 285° |
| 2026-05-03 20:31 | 52.24860 | 16.67963 | 5217 ft | 259 kts | 285° |
| 2026-05-03 20:32 | 52.25407 | 16.65138 | 5040 ft | 263 kts | 285° |
| 2026-05-03 20:32 | 52.25956 | 16.62296 | 4891 ft | 260 kts | 285° |
| 2026-05-03 20:32 | 52.26491 | 16.59534 | 4820 ft | 250 kts | 285° |
| 2026-05-03 20:32 | 52.27001 | 16.56884 | 4747 ft | 240 kts | 285° |
| 2026-05-03 20:33 | 52.27489 | 16.54338 | 4671 ft | 230 kts | 284° |
| 2026-05-03 20:33 | 52.27951 | 16.51919 | 4601 ft | 222 kts | 284° |
| 2026-05-03 20:33 | 52.28401 | 16.49568 | 4536 ft | 212 kts | 284° |
| 2026-05-03 20:33 | 52.28905 | 16.47361 | 4464 ft | 204 kts | 300° |
| 2026-05-03 20:34 | 52.29957 | 16.45897 | 4360 ft | 200 kts | 333° |
| 2026-05-03 20:34 | 52.31314 | 16.45409 | 4116 ft | 201 kts | 349° |
| 2026-05-03 20:34 | 52.32690 | 16.45143 | 3997 ft | 193 kts | 349° |
| 2026-05-03 20:34 | 52.34042 | 16.44891 | 3705 ft | 199 kts | 349° |
| 2026-05-03 20:35 | 52.35434 | 16.44634 | 3371 ft | 203 kts | 349° |
| 2026-05-03 20:35 | 52.36841 | 16.44380 | 3094 ft | 203 kts | 349° |
| 2026-05-03 20:35 | 52.38259 | 16.44130 | 3047 ft | 206 kts | 349° |
| 2026-05-03 20:35 | 52.39700 | 16.43998 | 3003 ft | 209 kts | 357° |
| 2026-05-03 20:36 | 52.41141 | 16.44025 | 2991 ft | 204 kts | 356° |
| 2026-05-03 20:36 | 52.42531 | 16.44053 | 3003 ft | 196 kts | 357° |
| 2026-05-03 20:36 | 52.43885 | 16.44078 | 2963 ft | 191 kts | 356° |
| 2026-05-03 20:36 | 52.45184 | 16.44140 | 2826 ft | 185 kts | 4° |
| 2026-05-03 20:37 | 52.46379 | 16.44921 | 2518 ft | 189 kts | 38° |
| 2026-05-03 20:37 | 52.47160 | 16.46627 | 2225 ft | 188 kts | 74° |
| 2026-05-03 20:37 | 52.47268 | 16.48656 | 2069 ft | 180 kts | 109° |
| 2026-05-03 20:37 | 52.46947 | 16.50614 | 2055 ft | 178 kts | 110° |
| 2026-05-03 20:38 | 52.46660 | 16.52579 | 1996 ft | 176 kts | 110° |
| 2026-05-03 20:38 | 52.46380 | 16.54510 | 1986 ft | 174 kts | 111° |
| 2026-05-03 20:38 | 52.46100 | 16.56438 | 2005 ft | 175 kts | 111° |
| 2026-05-03 20:38 | 52.45837 | 16.58360 | 2042 ft | 173 kts | 108° |
| 2026-05-03 20:39 | 52.45615 | 16.60327 | 1972 ft | 177 kts | 107° |
| 2026-05-03 20:39 | 52.45419 | 16.62329 | 1938 ft | 179 kts | 105° |
| 2026-05-03 20:39 | 52.45235 | 16.64358 | 1748 ft | 180 kts | 105° |
| 2026-05-03 20:39 | 52.45064 | 16.66341 | 1518 ft | 172 kts | 107° |
| 2026-05-03 20:40 | 52.44849 | 16.68197 | 1319 ft | 160 kts | 109° |
| 2026-05-03 20:40 | 52.44600 | 16.69867 | 1245 ft | 144 kts | 114° |
| 2026-05-03 20:40 | 52.44273 | 16.71408 | 1144 ft | 147 kts | 115° |
| 2026-05-03 20:40 | 52.43969 | 16.72987 | 979 ft | 145 kts | 111° |
| 2026-05-03 20:41 | 52.43667 | 16.74558 | 891 ft | 143 kts | 111° |
| 2026-05-03 20:41 | 52.43374 | 16.76107 | 785 ft | 142 kts | 110° |
| 2026-05-03 20:41 | 52.43072 | 16.77652 | 686 ft | 143 kts | 111° |
| 2026-05-03 20:41 | 52.42771 | 16.79217 | 508 ft | 144 kts | 110° |
| 2026-05-03 20:42 | 52.42466 | 16.80768 | 325 ft | 141 kts | 111° |
| 2026-05-03 20:42 | 52.42189 | 16.82189 | 289 ft | 110 kts | 107° |
| 2026-05-03 20:42 | 52.42022 | 16.83050 | 286 ft | 49 kts | 107° |
| 2026-05-03 20:42 | 52.41971 | 16.83306 | 288 ft | 14 kts | 111° |
| 2026-05-03 20:43 | 52.41934 | 16.83452 | 290 ft | 13 kts | 118° |
| 2026-05-03 20:43 | 52.41886 | 16.83569 | 290 ft | 11 kts | 128° |
| 2026-05-03 20:43 | 52.41842 | 16.83646 | 288 ft | 8 kts | 136° |
| 2026-05-03 20:43 | 52.41806 | 16.83701 | 288 ft | 6 kts | 137° |
| 2026-05-03 20:44 | 52.41774 | 16.83744 | 287 ft | 4 kts | 152° |
| 2026-05-03 20:44 | 52.41765 | 16.83748 | 287 ft | 0 kts | 166° |
| 2026-05-03 20:44 | 52.41754 | 16.83750 | 287 ft | 4 kts | 175° |
| 2026-05-03 20:45 | 52.41715 | 16.83773 | 288 ft | 7 kts | 132° |
| 2026-05-03 20:45 | 52.41694 | 16.83859 | 289 ft | 10 kts | 107° |
| 2026-05-03 20:45 | 52.41669 | 16.83961 | 287 ft | 9 kts | 131° |
| 2026-05-03 20:45 | 52.41613 | 16.83956 | 287 ft | 7 kts | 218° |
| 2026-05-03 20:46 | 52.41584 | 16.83909 | 287 ft | 5 kts | 225° |
| 2026-05-03 20:46 | 52.41564 | 16.83859 | 287 ft | 5 kts | 253° |
| 2026-05-03 20:46 | 52.41562 | 16.83791 | 287 ft | 7 kts | 271° |
| 2026-05-03 20:46 | 52.41565 | 16.83708 | 287 ft | 7 kts | 273° |
| 2026-05-03 20:47 | 52.41567 | 16.83620 | 287 ft | 8 kts | 272° |
| 2026-05-03 20:47 | 52.41572 | 16.83522 | 287 ft | 9 kts | 279° |
| 2026-05-03 20:47 | 52.41582 | 16.83449 | 287 ft | 5 kts | 282° |
| 2026-05-03 20:47 | 52.41589 | 16.83393 | 287 ft | 5 kts | 283° |
| 2026-05-03 20:48 | 52.41588 | 16.83345 | 287 ft | 4 kts | 229° |
| 2026-05-03 20:48 | 52.41563 | 16.83331 | 287 ft | 3 kts | 192° |
| 2026-05-03 20:48 | 52.41549 | 16.83326 | 287 ft | 1 kts | 192° |
| 2026-05-03 20:48 | 52.41541 | 16.83324 | 287 ft | 0 kts | 192° |